Hollywood Hills, South Carolina
Current Conditions -  °F | °C
As of 10:53 AM on Monday 26 Jan 2015 (Local Time) from KCUB Reporting Station
Clear Clear  
Wind Chill: 54°   Ceiling: Unl
Heat Index: 54°   Visibility: 10mi
Dew Point: 39°   Wind: 14mph
Humidity: 57%   Direction: 310°NW
Pressure: 29.68"   Gusts: 22mph
Location:  34.1179°N, 81.0612°W
Report Text: KCUB 261553Z AUTO 31012G19KT 10SM CLR 12/04 A2968 RMK AO2 SLP051 T01220039
Loading
Personal Weather Stations






























Interactive Weather Map New forecast layout! Learn more

10-Day Weather Forecast

Advertisements
Track Severe Weather on mobile